sensor_id;sensor_type;location;lat;lon;timestamp;P1;durP1;ratioP1;P2;durP2;ratioP2
11267;SDS011;49397;47.474;9.416;2022-12-13T00:01:17;11.73;;;7.80;;
11267;SDS011;49397;47.474;9.416;2022-12-13T00:03:43;15.73;;;9.60;;
11267;SDS011;49397;47.474;9.416;2022-12-13T00:06:10;14.87;;;9.33;;
11267;SDS011;49397;47.474;9.416;2022-12-13T00:08:37;18.27;;;10.33;;
11267;SDS011;49397;47.474;9.416;2022-12-13T00:11:04;17.80;;;10.43;;
11267;SDS011;49397;47.474;9.416;2022-12-13T00:13:31;15.90;;;9.20;;
11267;SDS011;49397;47.474;9.416;2022-12-13T00:15:58;13.90;;;9.13;;
11267;SDS011;49397;47.474;9.416;2022-12-13T00:18:25;16.83;;;9.90;;
11267;SDS011;49397;47.474;9.416;2022-12-13T00:20:51;16.63;;;10.00;;
11267;SDS011;49397;47.474;9.416;2022-12-13T00:23:17;21.27;;;10.27;;
11267;SDS011;49397;47.474;9.416;2022-12-13T00:25:43;15.00;;;8.87;;
11267;SDS011;49397;47.474;9.416;2022-12-13T00:28:09;14.43;;;9.27;;
11267;SDS011;49397;47.474;9.416;2022-12-13T00:30:35;16.87;;;9.30;;
11267;SDS011;49397;47.474;9.416;2022-12-13T00:33:00;16.43;;;8.67;;
11267;SDS011;49397;47.474;9.416;2022-12-13T00:35:26;18.60;;;9.40;;
11267;SDS011;49397;47.474;9.416;2022-12-13T00:37:51;13.80;;;8.97;;
11267;SDS011;49397;47.474;9.416;2022-12-13T00:40:17;15.30;;;8.93;;
11267;SDS011;49397;47.474;9.416;2022-12-13T00:42:43;16.40;;;10.10;;
11267;SDS011;49397;47.474;9.416;2022-12-13T00:45:08;19.07;;;10.53;;
11267;SDS011;49397;47.474;9.416;2022-12-13T00:47:34;12.93;;;8.50;;
11267;SDS011;49397;47.474;9.416;2022-12-13T00:50:00;14.10;;;8.30;;
11267;SDS011;49397;47.474;9.416;2022-12-13T00:52:27;17.33;;;10.40;;
11267;SDS011;49397;47.474;9.416;2022-12-13T00:54:52;18.17;;;9.40;;
11267;SDS011;49397;47.474;9.416;2022-12-13T00:57:18;18.00;;;10.67;;
11267;SDS011;49397;47.474;9.416;2022-12-13T00:59:43;20.47;;;10.40;;
11267;SDS011;49397;47.474;9.416;2022-12-13T01:02:09;16.67;;;8.87;;
11267;SDS011;49397;47.474;9.416;2022-12-13T01:04:34;21.30;;;9.97;;
11267;SDS011;49397;47.474;9.416;2022-12-13T01:07:00;17.27;;;9.73;;
11267;SDS011;49397;47.474;9.416;2022-12-13T01:09:25;14.97;;;9.47;;
11267;SDS011;49397;47.474;9.416;2022-12-13T01:11:57;16.73;;;9.80;;
11267;SDS011;49397;47.474;9.416;2022-12-13T01:14:24;20.07;;;10.27;;
11267;SDS011;49397;47.474;9.416;2022-12-13T01:16:50;15.27;;;8.93;;
11267;SDS011;49397;47.474;9.416;2022-12-13T01:19:20;19.17;;;9.93;;
11267;SDS011;49397;47.474;9.416;2022-12-13T01:21:46;19.37;;;10.37;;
11267;SDS011;49397;47.474;9.416;2022-12-13T01:24:12;21.37;;;10.30;;
11267;SDS011;49397;47.474;9.416;2022-12-13T01:26:39;17.03;;;10.57;;
11267;SDS011;49397;47.474;9.416;2022-12-13T01:29:04;22.43;;;10.23;;
11267;SDS011;49397;47.474;9.416;2022-12-13T01:31:30;28.60;;;11.23;;
11267;SDS011;49397;47.474;9.416;2022-12-13T01:33:55;17.57;;;10.60;;
11267;SDS011;49397;47.474;9.416;2022-12-13T01:36:21;20.80;;;9.60;;
11267;SDS011;49397;47.474;9.416;2022-12-13T01:38:48;15.27;;;8.93;;
11267;SDS011;49397;47.474;9.416;2022-12-13T01:41:18;27.83;;;11.57;;
11267;SDS011;49397;47.474;9.416;2022-12-13T01:46:11;20.57;;;9.03;;
11267;SDS011;49397;47.474;9.416;2022-12-13T01:48:39;17.90;;;9.17;;
11267;SDS011;49397;47.474;9.416;2022-12-13T01:51:12;19.63;;;10.33;;
11267;SDS011;49397;47.474;9.416;2022-12-13T01:53:42;18.83;;;10.20;;
11267;SDS011;49397;47.474;9.416;2022-12-13T01:56:32;16.83;;;10.03;;
11267;SDS011;49397;47.474;9.416;2022-12-13T01:59:00;17.80;;;10.37;;
11267;SDS011;49397;47.474;9.416;2022-12-13T02:01:27;18.37;;;9.73;;
11267;SDS011;49397;47.474;9.416;2022-12-13T02:03:53;20.70;;;11.33;;
11267;SDS011;49397;47.474;9.416;2022-12-13T02:06:27;22.70;;;9.87;;
11267;SDS011;49397;47.474;9.416;2022-12-13T02:08:57;14.20;;;8.73;;
11267;SDS011;49397;47.474;9.416;2022-12-13T02:11:25;16.17;;;9.07;;
11267;SDS011;49397;47.474;9.416;2022-12-13T02:13:52;16.57;;;8.80;;
11267;SDS011;49397;47.474;9.416;2022-12-13T02:16:27;18.07;;;8.87;;
11267;SDS011;49397;47.474;9.416;2022-12-13T02:27:52;15.30;;;8.63;;
11267;SDS011;49397;47.474;9.416;2022-12-13T02:30:33;16.67;;;9.33;;
11267;SDS011;49397;47.474;9.416;2022-12-13T02:38:35;12.93;;;7.73;;
11267;SDS011;49397;47.474;9.416;2022-12-13T02:41:08;18.53;;;10.47;;
11267;SDS011;49397;47.474;9.416;2022-12-13T02:43:45;18.23;;;8.20;;
11267;SDS011;49397;47.474;9.416;2022-12-13T02:46:19;17.97;;;8.40;;
11267;SDS011;49397;47.474;9.416;2022-12-13T02:48:46;14.47;;;8.20;;
11267;SDS011;49397;47.474;9.416;2022-12-13T02:51:15;15.03;;;7.60;;
11267;SDS011;49397;47.474;9.416;2022-12-13T02:53:42;21.53;;;10.00;;
11267;SDS011;49397;47.474;9.416;2022-12-13T02:56:08;14.30;;;8.63;;
11267;SDS011;49397;47.474;9.416;2022-12-13T02:58:35;18.97;;;9.67;;
11267;SDS011;49397;47.474;9.416;2022-12-13T03:10:12;13.67;;;8.97;;
11267;SDS011;49397;47.474;9.416;2022-12-13T03:18:06;18.20;;;9.47;;
11267;SDS011;49397;47.474;9.416;2022-12-13T03:20:43;13.80;;;7.93;;
11267;SDS011;49397;47.474;9.416;2022-12-13T03:23:11;14.93;;;8.80;;
11267;SDS011;49397;47.474;9.416;2022-12-13T03:25:37;16.83;;;9.50;;
11267;SDS011;49397;47.474;9.416;2022-12-13T03:28:03;13.60;;;7.97;;
11267;SDS011;49397;47.474;9.416;2022-12-13T03:30:29;13.53;;;7.70;;
11267;SDS011;49397;47.474;9.416;2022-12-13T03:32:56;10.23;;;7.20;;
11267;SDS011;49397;47.474;9.416;2022-12-13T03:35:22;11.43;;;7.37;;
11267;SDS011;49397;47.474;9.416;2022-12-13T03:37:48;14.27;;;8.17;;
11267;SDS011;49397;47.474;9.416;2022-12-13T03:40:15;18.83;;;8.70;;
11267;SDS011;49397;47.474;9.416;2022-12-13T03:42:41;14.60;;;8.40;;
11267;SDS011;49397;47.474;9.416;2022-12-13T03:45:07;13.83;;;8.63;;
11267;SDS011;49397;47.474;9.416;2022-12-13T03:47:33;16.00;;;8.27;;
11267;SDS011;49397;47.474;9.416;2022-12-13T03:49:58;14.53;;;8.87;;
11267;SDS011;49397;47.474;9.416;2022-12-13T03:52:24;16.47;;;9.00;;
11267;SDS011;49397;47.474;9.416;2022-12-13T03:54:49;13.87;;;8.17;;
11267;SDS011;49397;47.474;9.416;2022-12-13T03:57:15;13.93;;;7.73;;
11267;SDS011;49397;47.474;9.416;2022-12-13T03:59:40;12.33;;;7.83;;
11267;SDS011;49397;47.474;9.416;2022-12-13T04:02:06;11.43;;;6.90;;
11267;SDS011;49397;47.474;9.416;2022-12-13T04:04:31;15.03;;;7.80;;
11267;SDS011;49397;47.474;9.416;2022-12-13T04:06:57;15.23;;;8.93;;
11267;SDS011;49397;47.474;9.416;2022-12-13T04:09:22;11.43;;;8.10;;
11267;SDS011;49397;47.474;9.416;2022-12-13T04:11:48;16.33;;;7.97;;
11267;SDS011;49397;47.474;9.416;2022-12-13T04:14:32;13.90;;;8.17;;
11267;SDS011;49397;47.474;9.416;2022-12-13T04:16:57;12.83;;;8.00;;
11267;SDS011;49397;47.474;9.416;2022-12-13T04:19:23;13.47;;;8.57;;
11267;SDS011;49397;47.474;9.416;2022-12-13T04:21:48;11.90;;;7.90;;
11267;SDS011;49397;47.474;9.416;2022-12-13T04:24:14;14.33;;;8.43;;
11267;SDS011;49397;47.474;9.416;2022-12-13T04:26:40;14.93;;;8.50;;
11267;SDS011;49397;47.474;9.416;2022-12-13T04:29:06;10.97;;;8.07;;
11267;SDS011;49397;47.474;9.416;2022-12-13T04:31:31;13.13;;;8.67;;
11267;SDS011;49397;47.474;9.416;2022-12-13T04:33:57;15.60;;;8.00;;
11267;SDS011;49397;47.474;9.416;2022-12-13T04:36:22;11.40;;;7.63;;
11267;SDS011;49397;47.474;9.416;2022-12-13T04:38:48;11.83;;;7.10;;
11267;SDS011;49397;47.474;9.416;2022-12-13T04:41:14;21.67;;;9.03;;
11267;SDS011;49397;47.474;9.416;2022-12-13T04:43:41;17.87;;;7.97;;
11267;SDS011;49397;47.474;9.416;2022-12-13T04:46:07;13.57;;;8.23;;
11267;SDS011;49397;47.474;9.416;2022-12-13T04:48:33;13.93;;;7.97;;
11267;SDS011;49397;47.474;9.416;2022-12-13T04:50:59;20.07;;;8.67;;
11267;SDS011;49397;47.474;9.416;2022-12-13T04:53:25;12.10;;;7.47;;
11267;SDS011;49397;47.474;9.416;2022-12-13T04:55:51;15.70;;;8.87;;
11267;SDS011;49397;47.474;9.416;2022-12-13T04:58:17;11.23;;;7.43;;
11267;SDS011;49397;47.474;9.416;2022-12-13T05:00:43;12.17;;;8.13;;
11267;SDS011;49397;47.474;9.416;2022-12-13T05:03:08;11.33;;;8.00;;
11267;SDS011;49397;47.474;9.416;2022-12-13T05:05:37;16.93;;;8.73;;
11267;SDS011;49397;47.474;9.416;2022-12-13T05:08:04;11.80;;;7.27;;
11267;SDS011;49397;47.474;9.416;2022-12-13T05:10:29;14.37;;;8.60;;
11267;SDS011;49397;47.474;9.416;2022-12-13T05:12:55;11.63;;;8.20;;
11267;SDS011;49397;47.474;9.416;2022-12-13T05:15:20;14.03;;;8.70;;
11267;SDS011;49397;47.474;9.416;2022-12-13T05:17:46;11.07;;;7.53;;
11267;SDS011;49397;47.474;9.416;2022-12-13T05:20:11;14.87;;;8.50;;
11267;SDS011;49397;47.474;9.416;2022-12-13T05:22:37;14.20;;;7.90;;
11267;SDS011;49397;47.474;9.416;2022-12-13T05:25:03;12.63;;;7.87;;
11267;SDS011;49397;47.474;9.416;2022-12-13T05:27:29;10.90;;;8.20;;
11267;SDS011;49397;47.474;9.416;2022-12-13T05:29:54;12.13;;;8.77;;
11267;SDS011;49397;47.474;9.416;2022-12-13T05:32:21;14.60;;;8.63;;
11267;SDS011;49397;47.474;9.416;2022-12-13T05:34:46;13.80;;;8.50;;
11267;SDS011;49397;47.474;9.416;2022-12-13T05:37:12;20.60;;;7.87;;
11267;SDS011;49397;47.474;9.416;2022-12-13T05:39:38;10.77;;;7.97;;
11267;SDS011;49397;47.474;9.416;2022-12-13T05:42:03;13.67;;;8.83;;
11267;SDS011;49397;47.474;9.416;2022-12-13T05:44:29;16.27;;;9.10;;
11267;SDS011;49397;47.474;9.416;2022-12-13T05:46:56;14.93;;;8.13;;
11267;SDS011;49397;47.474;9.416;2022-12-13T05:49:22;12.67;;;8.63;;
11267;SDS011;49397;47.474;9.416;2022-12-13T05:51:47;18.97;;;9.17;;
11267;SDS011;49397;47.474;9.416;2022-12-13T05:54:13;29.00;;;10.03;;
11267;SDS011;49397;47.474;9.416;2022-12-13T05:56:39;11.93;;;7.10;;
11267;SDS011;49397;47.474;9.416;2022-12-13T05:59:04;16.23;;;8.20;;
11267;SDS011;49397;47.474;9.416;2022-12-13T06:01:30;15.80;;;9.03;;
11267;SDS011;49397;47.474;9.416;2022-12-13T06:03:55;12.53;;;7.77;;
11267;SDS011;49397;47.474;9.416;2022-12-13T06:06:21;13.40;;;7.67;;
11267;SDS011;49397;47.474;9.416;2022-12-13T06:08:46;13.97;;;8.40;;
11267;SDS011;49397;47.474;9.416;2022-12-13T06:11:12;15.60;;;8.10;;
11267;SDS011;49397;47.474;9.416;2022-12-13T06:13:42;13.80;;;7.90;;
11267;SDS011;49397;47.474;9.416;2022-12-13T06:16:08;14.67;;;8.50;;
11267;SDS011;49397;47.474;9.416;2022-12-13T06:18:35;11.43;;;7.17;;
11267;SDS011;49397;47.474;9.416;2022-12-13T06:21:01;12.47;;;7.23;;
11267;SDS011;49397;47.474;9.416;2022-12-13T06:23:29;11.10;;;6.80;;
11267;SDS011;49397;47.474;9.416;2022-12-13T06:25:55;11.40;;;7.13;;
11267;SDS011;49397;47.474;9.416;2022-12-13T06:28:21;9.73;;;6.93;;
11267;SDS011;49397;47.474;9.416;2022-12-13T06:30:47;11.33;;;7.50;;
11267;SDS011;49397;47.474;9.416;2022-12-13T06:33:17;13.60;;;7.70;;
11267;SDS011;49397;47.474;9.416;2022-12-13T06:35:43;9.57;;;6.63;;
11267;SDS011;49397;47.474;9.416;2022-12-13T06:38:09;11.00;;;7.23;;
11267;SDS011;49397;47.474;9.416;2022-12-13T06:40:35;10.83;;;7.57;;
11267;SDS011;49397;47.474;9.416;2022-12-13T06:43:00;14.27;;;7.57;;
11267;SDS011;49397;47.474;9.416;2022-12-13T06:45:26;11.37;;;6.93;;
11267;SDS011;49397;47.474;9.416;2022-12-13T06:47:51;11.63;;;7.43;;
11267;SDS011;49397;47.474;9.416;2022-12-13T06:50:17;16.30;;;7.90;;
11267;SDS011;49397;47.474;9.416;2022-12-13T06:52:44;11.67;;;7.87;;
11267;SDS011;49397;47.474;9.416;2022-12-13T06:55:11;13.93;;;6.83;;
11267;SDS011;49397;47.474;9.416;2022-12-13T06:57:36;10.30;;;7.80;;
11267;SDS011;49397;47.474;9.416;2022-12-13T07:00:02;10.47;;;6.97;;
11267;SDS011;49397;47.474;9.416;2022-12-13T07:02:29;11.10;;;7.40;;
11267;SDS011;49397;47.474;9.416;2022-12-13T07:04:54;8.77;;;7.33;;
11267;SDS011;49397;47.474;9.416;2022-12-13T07:07:20;14.33;;;7.30;;
11267;SDS011;49397;47.474;9.416;2022-12-13T07:09:47;15.93;;;7.43;;
11267;SDS011;49397;47.474;9.416;2022-12-13T07:12:13;13.83;;;8.10;;
11267;SDS011;49397;47.474;9.416;2022-12-13T07:14:38;12.67;;;7.40;;
11267;SDS011;49397;47.474;9.416;2022-12-13T07:17:04;12.90;;;7.87;;
11267;SDS011;49397;47.474;9.416;2022-12-13T07:19:29;7.80;;;6.00;;
11267;SDS011;49397;47.474;9.416;2022-12-13T07:21:55;11.70;;;7.97;;
11267;SDS011;49397;47.474;9.416;2022-12-13T07:24:21;11.93;;;8.23;;
11267;SDS011;49397;47.474;9.416;2022-12-13T07:26:46;11.17;;;7.83;;
11267;SDS011;49397;47.474;9.416;2022-12-13T07:29:12;13.00;;;7.67;;
11267;SDS011;49397;47.474;9.416;2022-12-13T07:31:37;10.63;;;7.20;;
11267;SDS011;49397;47.474;9.416;2022-12-13T07:34:03;9.50;;;7.50;;
11267;SDS011;49397;47.474;9.416;2022-12-13T07:36:28;11.73;;;7.93;;
11267;SDS011;49397;47.474;9.416;2022-12-13T07:38:55;9.47;;;7.23;;
11267;SDS011;49397;47.474;9.416;2022-12-13T07:41:22;11.60;;;7.27;;
11267;SDS011;49397;47.474;9.416;2022-12-13T07:43:49;16.07;;;8.23;;
11267;SDS011;49397;47.474;9.416;2022-12-13T07:46:14;9.30;;;6.47;;
11267;SDS011;49397;47.474;9.416;2022-12-13T07:48:40;11.33;;;7.30;;
11267;SDS011;49397;47.474;9.416;2022-12-13T07:51:06;12.80;;;7.50;;
11267;SDS011;49397;47.474;9.416;2022-12-13T07:53:35;11.10;;;7.33;;
11267;SDS011;49397;47.474;9.416;2022-12-13T07:56:02;11.07;;;7.20;;
11267;SDS011;49397;47.474;9.416;2022-12-13T07:58:28;12.67;;;7.97;;
11267;SDS011;49397;47.474;9.416;2022-12-13T08:00:57;10.63;;;7.53;;
11267;SDS011;49397;47.474;9.416;2022-12-13T08:03:24;12.60;;;7.70;;
11267;SDS011;49397;47.474;9.416;2022-12-13T08:05:56;13.10;;;7.60;;
11267;SDS011;49397;47.474;9.416;2022-12-13T08:08:27;9.37;;;6.80;;
11267;SDS011;49397;47.474;9.416;2022-12-13T08:10:52;14.43;;;7.83;;
11267;SDS011;49397;47.474;9.416;2022-12-13T08:13:18;11.83;;;8.27;;
11267;SDS011;49397;47.474;9.416;2022-12-13T08:15:43;11.83;;;7.30;;
11267;SDS011;49397;47.474;9.416;2022-12-13T08:18:09;11.07;;;7.80;;
11267;SDS011;49397;47.474;9.416;2022-12-13T08:20:34;14.93;;;7.27;;
11267;SDS011;49397;47.474;9.416;2022-12-13T08:23:00;12.17;;;7.87;;
11267;SDS011;49397;47.474;9.416;2022-12-13T08:25:26;10.83;;;7.57;;
11267;SDS011;49397;47.474;9.416;2022-12-13T08:27:51;11.23;;;7.53;;
11267;SDS011;49397;47.474;9.416;2022-12-13T08:30:17;11.17;;;7.33;;
11267;SDS011;49397;47.474;9.416;2022-12-13T08:32:43;10.57;;;7.50;;
11267;SDS011;49397;47.474;9.416;2022-12-13T08:35:09;11.70;;;8.20;;
11267;SDS011;49397;47.474;9.416;2022-12-13T08:37:35;12.17;;;7.80;;
11267;SDS011;49397;47.474;9.416;2022-12-13T08:40:00;16.43;;;7.93;;
11267;SDS011;49397;47.474;9.416;2022-12-13T08:42:28;12.20;;;7.40;;
11267;SDS011;49397;47.474;9.416;2022-12-13T08:44:53;10.33;;;7.37;;
11267;SDS011;49397;47.474;9.416;2022-12-13T08:47:20;13.90;;;7.60;;
11267;SDS011;49397;47.474;9.416;2022-12-13T08:49:47;11.03;;;7.63;;
11267;SDS011;49397;47.474;9.416;2022-12-13T08:52:13;11.30;;;7.73;;
11267;SDS011;49397;47.474;9.416;2022-12-13T08:54:38;9.53;;;6.70;;
11267;SDS011;49397;47.474;9.416;2022-12-13T08:57:04;12.00;;;7.40;;
11267;SDS011;49397;47.474;9.416;2022-12-13T08:59:29;12.33;;;7.13;;
11267;SDS011;49397;47.474;9.416;2022-12-13T09:01:55;15.57;;;7.40;;
11267;SDS011;49397;47.474;9.416;2022-12-13T09:04:21;10.33;;;8.13;;
11267;SDS011;49397;47.474;9.416;2022-12-13T09:06:46;11.67;;;7.20;;
11267;SDS011;49397;47.474;9.416;2022-12-13T09:09:12;12.07;;;7.80;;
11267;SDS011;49397;47.474;9.416;2022-12-13T09:11:38;11.07;;;7.63;;
11267;SDS011;49397;47.474;9.416;2022-12-13T09:14:05;12.47;;;7.90;;
11267;SDS011;49397;47.474;9.416;2022-12-13T09:16:31;12.70;;;7.40;;
11267;SDS011;49397;47.474;9.416;2022-12-13T09:19:00;11.03;;;7.20;;
11267;SDS011;49397;47.474;9.416;2022-12-13T09:21:27;14.20;;;8.00;;
11267;SDS011;49397;47.474;9.416;2022-12-13T09:23:53;13.47;;;7.77;;
11267;SDS011;49397;47.474;9.416;2022-12-13T09:26:19;9.17;;;6.83;;
11267;SDS011;49397;47.474;9.416;2022-12-13T09:28:45;13.33;;;8.33;;
11267;SDS011;49397;47.474;9.416;2022-12-13T09:31:14;13.03;;;8.00;;
11267;SDS011;49397;47.474;9.416;2022-12-13T09:33:41;11.33;;;7.60;;
11267;SDS011;49397;47.474;9.416;2022-12-13T09:36:10;12.93;;;7.90;;
11267;SDS011;49397;47.474;9.416;2022-12-13T09:38:37;15.07;;;7.57;;
11267;SDS011;49397;47.474;9.416;2022-12-13T09:41:22;11.30;;;7.90;;
11267;SDS011;49397;47.474;9.416;2022-12-13T09:43:53;12.60;;;8.30;;
11267;SDS011;49397;47.474;9.416;2022-12-13T09:46:28;15.67;;;8.63;;
11267;SDS011;49397;47.474;9.416;2022-12-13T09:48:56;12.77;;;8.83;;
11267;SDS011;49397;47.474;9.416;2022-12-13T09:51:26;13.37;;;8.43;;
11267;SDS011;49397;47.474;9.416;2022-12-13T09:53:52;11.67;;;7.57;;
11267;SDS011;49397;47.474;9.416;2022-12-13T09:56:19;10.30;;;8.03;;
11267;SDS011;49397;47.474;9.416;2022-12-13T09:58:47;10.73;;;7.83;;
11267;SDS011;49397;47.474;9.416;2022-12-13T10:01:14;14.10;;;8.00;;
11267;SDS011;49397;47.474;9.416;2022-12-13T10:03:41;12.80;;;8.27;;
11267;SDS011;49397;47.474;9.416;2022-12-13T10:06:13;13.03;;;8.50;;
11267;SDS011;49397;47.474;9.416;2022-12-13T10:08:41;12.80;;;7.93;;
11267;SDS011;49397;47.474;9.416;2022-12-13T10:11:13;11.33;;;8.23;;
11267;SDS011;49397;47.474;9.416;2022-12-13T10:19:11;13.97;;;7.90;;
11267;SDS011;49397;47.474;9.416;2022-12-13T10:21:41;15.97;;;8.00;;
11267;SDS011;49397;47.474;9.416;2022-12-13T10:26:43;13.40;;;8.03;;
11267;SDS011;49397;47.474;9.416;2022-12-13T10:29:09;10.80;;;7.37;;
11267;SDS011;49397;47.474;9.416;2022-12-13T10:31:48;11.53;;;7.33;;
11267;SDS011;49397;47.474;9.416;2022-12-13T10:34:23;7.90;;;6.67;;
11267;SDS011;49397;47.474;9.416;2022-12-13T10:36:51;13.20;;;7.87;;
11267;SDS011;49397;47.474;9.416;2022-12-13T10:39:36;13.07;;;7.60;;
11267;SDS011;49397;47.474;9.416;2022-12-13T10:42:13;13.00;;;7.83;;
11267;SDS011;49397;47.474;9.416;2022-12-13T10:44:41;14.47;;;9.07;;
11267;SDS011;49397;47.474;9.416;2022-12-13T10:54:58;15.07;;;8.03;;
11267;SDS011;49397;47.474;9.416;2022-12-13T10:57:27;13.77;;;8.60;;
11267;SDS011;49397;47.474;9.416;2022-12-13T10:59:53;11.53;;;8.20;;
11267;SDS011;49397;47.474;9.416;2022-12-13T11:02:32;10.90;;;8.47;;
11267;SDS011;49397;47.474;9.416;2022-12-13T11:05:16;17.20;;;7.70;;
11267;SDS011;49397;47.474;9.416;2022-12-13T11:07:47;8.83;;;6.33;;
11267;SDS011;49397;47.474;9.416;2022-12-13T11:12:44;14.63;;;8.00;;
11267;SDS011;49397;47.474;9.416;2022-12-13T11:15:15;12.63;;;8.63;;
11267;SDS011;49397;47.474;9.416;2022-12-13T11:17:50;16.47;;;8.27;;
11267;SDS011;49397;47.474;9.416;2022-12-13T11:20:26;9.77;;;6.77;;
11267;SDS011;49397;47.474;9.416;2022-12-13T11:23:18;14.17;;;7.83;;
11267;SDS011;49397;47.474;9.416;2022-12-13T11:25:55;20.77;;;8.47;;
11267;SDS011;49397;47.474;9.416;2022-12-13T11:31:45;14.83;;;8.23;;
11267;SDS011;49397;47.474;9.416;2022-12-13T11:39:59;11.90;;;7.17;;
11267;SDS011;49397;47.474;9.416;2022-12-13T11:42:43;14.33;;;8.20;;
11267;SDS011;49397;47.474;9.416;2022-12-13T11:47:41;13.43;;;8.40;;
11267;SDS011;49397;47.474;9.416;2022-12-13T11:50:15;16.80;;;9.77;;
11267;SDS011;49397;47.474;9.416;2022-12-13T11:52:54;14.00;;;9.43;;
11267;SDS011;49397;47.474;9.416;2022-12-13T11:55:32;13.17;;;8.43;;
11267;SDS011;49397;47.474;9.416;2022-12-13T11:58:08;15.53;;;9.03;;
11267;SDS011;49397;47.474;9.416;2022-12-13T12:00:46;13.67;;;8.87;;
11267;SDS011;49397;47.474;9.416;2022-12-13T12:03:29;14.27;;;9.83;;
11267;SDS011;49397;47.474;9.416;2022-12-13T12:06:07;14.17;;;7.83;;
11267;SDS011;49397;47.474;9.416;2022-12-13T12:11:22;14.93;;;9.17;;
11267;SDS011;49397;47.474;9.416;2022-12-13T12:16:53;13.03;;;7.20;;
11267;SDS011;49397;47.474;9.416;2022-12-13T12:19:26;15.13;;;9.37;;
11267;SDS011;49397;47.474;9.416;2022-12-13T12:24:48;14.50;;;8.57;;
11267;SDS011;49397;47.474;9.416;2022-12-13T12:30:25;14.17;;;8.80;;
11267;SDS011;49397;47.474;9.416;2022-12-13T12:46:42;11.73;;;8.17;;
11267;SDS011;49397;47.474;9.416;2022-12-13T12:57:04;15.07;;;8.13;;
11267;SDS011;49397;47.474;9.416;2022-12-13T13:00:12;12.17;;;7.83;;
11267;SDS011;49397;47.474;9.416;2022-12-13T13:08:03;14.73;;;7.83;;
11267;SDS011;49397;47.474;9.416;2022-12-13T13:10:29;11.93;;;7.97;;
11267;SDS011;49397;47.474;9.416;2022-12-13T13:12:56;12.10;;;7.93;;
11267;SDS011;49397;47.474;9.416;2022-12-13T13:17:57;12.87;;;7.70;;
11267;SDS011;49397;47.474;9.416;2022-12-13T13:20:24;14.23;;;8.70;;
11267;SDS011;49397;47.474;9.416;2022-12-13T13:22:51;12.73;;;8.47;;
11267;SDS011;49397;47.474;9.416;2022-12-13T13:31:06;11.13;;;7.73;;
11267;SDS011;49397;47.474;9.416;2022-12-13T13:39:03;14.93;;;8.20;;
11267;SDS011;49397;47.474;9.416;2022-12-13T13:42:29;12.50;;;7.87;;
11267;SDS011;49397;47.474;9.416;2022-12-13T13:47:09;14.27;;;8.50;;
11267;SDS011;49397;47.474;9.416;2022-12-13T14:10:24;12.50;;;7.30;;
11267;SDS011;49397;47.474;9.416;2022-12-13T14:27:10;13.00;;;8.17;;
11267;SDS011;49397;47.474;9.416;2022-12-13T14:29:55;13.67;;;8.13;;
11267;SDS011;49397;47.474;9.416;2022-12-13T14:32:24;9.13;;;7.40;;
11267;SDS011;49397;47.474;9.416;2022-12-13T14:34:58;19.67;;;8.67;;
11267;SDS011;49397;47.474;9.416;2022-12-13T14:37:34;13.27;;;8.40;;
11267;SDS011;49397;47.474;9.416;2022-12-13T14:40:21;13.30;;;8.47;;
11267;SDS011;49397;47.474;9.416;2022-12-13T14:43:29;11.70;;;7.93;;
11267;SDS011;49397;47.474;9.416;2022-12-13T14:46:05;10.27;;;8.17;;
11267;SDS011;49397;47.474;9.416;2022-12-13T14:48:33;15.40;;;8.67;;
11267;SDS011;49397;47.474;9.416;2022-12-13T14:51:01;15.40;;;8.90;;
11267;SDS011;49397;47.474;9.416;2022-12-13T14:53:36;9.87;;;8.03;;
11267;SDS011;49397;47.474;9.416;2022-12-13T14:56:14;14.70;;;8.83;;
11267;SDS011;49397;47.474;9.416;2022-12-13T14:58:50;10.30;;;7.67;;
11267;SDS011;49397;47.474;9.416;2022-12-13T15:03:54;13.87;;;8.37;;
11267;SDS011;49397;47.474;9.416;2022-12-13T15:07:01;10.50;;;8.47;;
11267;SDS011;49397;47.474;9.416;2022-12-13T15:09:37;12.63;;;8.60;;
11267;SDS011;49397;47.474;9.416;2022-12-13T15:12:10;14.30;;;8.20;;
11267;SDS011;49397;47.474;9.416;2022-12-13T15:14:37;27.07;;;8.70;;
11267;SDS011;49397;47.474;9.416;2022-12-13T15:17:10;9.23;;;7.23;;
11267;SDS011;49397;47.474;9.416;2022-12-13T15:19:49;16.77;;;7.73;;
11267;SDS011;49397;47.474;9.416;2022-12-13T15:22:15;12.30;;;8.17;;
11267;SDS011;49397;47.474;9.416;2022-12-13T15:24:40;12.30;;;8.27;;
11267;SDS011;49397;47.474;9.416;2022-12-13T15:27:13;13.37;;;9.03;;
11267;SDS011;49397;47.474;9.416;2022-12-13T15:29:41;24.23;;;9.33;;
11267;SDS011;49397;47.474;9.416;2022-12-13T15:32:14;14.57;;;8.53;;
11267;SDS011;49397;47.474;9.416;2022-12-13T15:34:47;17.10;;;8.70;;
11267;SDS011;49397;47.474;9.416;2022-12-13T15:39:43;13.10;;;8.90;;
11267;SDS011;49397;47.474;9.416;2022-12-13T15:44:53;13.00;;;8.90;;
11267;SDS011;49397;47.474;9.416;2022-12-13T15:47:22;13.03;;;8.60;;
11267;SDS011;49397;47.474;9.416;2022-12-13T15:49:49;14.90;;;8.33;;
11267;SDS011;49397;47.474;9.416;2022-12-13T15:52:24;16.27;;;8.60;;
11267;SDS011;49397;47.474;9.416;2022-12-13T15:55:00;15.77;;;9.13;;
11267;SDS011;49397;47.474;9.416;2022-12-13T15:57:48;13.30;;;9.10;;
11267;SDS011;49397;47.474;9.416;2022-12-13T16:05:53;16.00;;;8.63;;
11267;SDS011;49397;47.474;9.416;2022-12-13T16:08:30;18.93;;;10.63;;
11267;SDS011;49397;47.474;9.416;2022-12-13T16:10:57;16.63;;;9.40;;
11267;SDS011;49397;47.474;9.416;2022-12-13T16:13:24;16.67;;;9.40;;
11267;SDS011;49397;47.474;9.416;2022-12-13T16:16:34;12.63;;;8.70;;
11267;SDS011;49397;47.474;9.416;2022-12-13T16:18:53;17.30;;;8.53;;
11267;SDS011;49397;47.474;9.416;2022-12-13T16:21:24;13.87;;;9.00;;
11267;SDS011;49397;47.474;9.416;2022-12-13T16:23:50;14.67;;;8.43;;
11267;SDS011;49397;47.474;9.416;2022-12-13T16:26:20;17.30;;;9.37;;
11267;SDS011;49397;47.474;9.416;2022-12-13T16:28:49;12.47;;;8.87;;
11267;SDS011;49397;47.474;9.416;2022-12-13T16:31:19;13.77;;;8.90;;
11267;SDS011;49397;47.474;9.416;2022-12-13T16:33:46;15.40;;;8.37;;
11267;SDS011;49397;47.474;9.416;2022-12-13T16:36:12;16.20;;;9.00;;
11267;SDS011;49397;47.474;9.416;2022-12-13T16:38:38;13.27;;;8.83;;
11267;SDS011;49397;47.474;9.416;2022-12-13T16:41:03;15.17;;;9.23;;
11267;SDS011;49397;47.474;9.416;2022-12-13T16:43:30;14.10;;;9.63;;
11267;SDS011;49397;47.474;9.416;2022-12-13T16:45:58;14.73;;;9.17;;
11267;SDS011;49397;47.474;9.416;2022-12-13T16:48:27;15.60;;;8.70;;
11267;SDS011;49397;47.474;9.416;2022-12-13T16:50:53;14.00;;;9.90;;
11267;SDS011;49397;47.474;9.416;2022-12-13T16:53:18;12.13;;;8.83;;
11267;SDS011;49397;47.474;9.416;2022-12-13T16:55:45;17.93;;;9.33;;
11267;SDS011;49397;47.474;9.416;2022-12-13T16:58:14;13.37;;;9.33;;
11267;SDS011;49397;47.474;9.416;2022-12-13T17:00:41;17.07;;;10.10;;
11267;SDS011;49397;47.474;9.416;2022-12-13T17:03:09;11.07;;;8.30;;
11267;SDS011;49397;47.474;9.416;2022-12-13T17:05:36;16.17;;;10.07;;
11267;SDS011;49397;47.474;9.416;2022-12-13T17:08:05;12.60;;;8.97;;
11267;SDS011;49397;47.474;9.416;2022-12-13T17:10:31;16.27;;;9.73;;
11267;SDS011;49397;47.474;9.416;2022-12-13T17:12:57;15.47;;;9.40;;
11267;SDS011;49397;47.474;9.416;2022-12-13T17:15:22;13.43;;;8.87;;
11267;SDS011;49397;47.474;9.416;2022-12-13T17:17:48;11.43;;;9.10;;
11267;SDS011;49397;47.474;9.416;2022-12-13T17:20:15;16.03;;;9.40;;
11267;SDS011;49397;47.474;9.416;2022-12-13T17:22:42;15.83;;;10.40;;
11267;SDS011;49397;47.474;9.416;2022-12-13T17:25:09;15.37;;;9.60;;
11267;SDS011;49397;47.474;9.416;2022-12-13T17:27:35;19.90;;;11.23;;